• Join FlightAware (Why Join?)
  • Login
  • US Flag 
04:25AM EDT


 

Airport Tracker/Info


-or-


 

Live Flight TrackerFlight Track Log ✈ SWA1688 ✈ 01-Mar-2014 ✈ KAUS - KPHX

Flight Track Log - Related Links

Times and Time Zones

All times are in EST time to prevent confusion due to time zone crossing. See the SWA1688 flight status page for this flight to view local times or setup timezone preferences in your user account.

Time Position Orientation Groundspeed Altitude Reporting Facility
EST Latitude Longitude Course Direction KTS MPH feet Rate Location/Type
11:10AM 30.1417 -97.7606 278° West 249 287 4,800  Level Houston Center
11:11AM 30.1894 -97.8353 307° West 277 319 8,000 2,760 Climbing Houston Center
11:12AM 30.2075 -97.9278 283° West 279 321 10,600 2,100 Climbing Houston Center
11:13AM 30.2328 -98.0389 285° West 330 380 12,400 1,800 Climbing Houston Center
11:14AM 30.4167 -97.9478 270° West  Level FlightAware Approximate
11:14AM 30.2550 -98.1389 284° West 342 394 14,400  Level Houston Center
11:15AM 30.4226 -98.0638 278° West  Level FlightAware Approximate
11:15AM 30.2828 -98.2569 285° West 349 402 17,000  Level Houston Center
11:16AM 30.3064 -98.3669 284° West 351 404 18,600 1,620 Climbing Houston Center
11:17AM 30.3317 -98.4772 285° West 367 422 20,400 1,740 Climbing Houston Center
11:18AM 30.3622 -98.6142 285° West 374 430 22,300 1,620 Climbing Houston Center
11:19AM 30.3878 -98.7331 284° West 375 432 23,800 1,200 Climbing Houston Center
11:20AM 30.4139 -98.8564 284° West 388 447 24,800 1,200 Climbing Houston Center
11:21AM 30.4431 -98.9803 285° West 393 452 26,400 1,500 Climbing Houston Center
11:22AM 30.4694 -99.1028 284° West 392 451 27,900 1,320 Climbing Houston Center
11:23AM 30.4931 -99.2139 284° West 382 440 29,200 1,320 Climbing Houston Center
11:24AM 30.5236 -99.3547 284° West 381 438 30,700 1,200 Climbing Houston Center
11:25AM 30.5486 -99.4692 284° West 372 428 31,700 840 Climbing Houston Center
11:26AM 30.5742 -99.5861 284° West 373 429 32,500 720 Climbing Houston Center
11:27AM 30.5994 -99.7039 284° West 377 434 33,300 780 Climbing Houston Center
11:28AM 30.6250 -99.8222 284° West 378 435 34,200 900 Climbing Houston Center
11:29AM 30.6544 -99.9614 284° West 375 432 35,200 720 Climbing Houston Center
11:30AM 30.6781 -100.0783 283° West 373 429 35,800 360 Climbing Houston Center
11:31AM 30.7025 -100.1931 284° West 373 429 36,000 60 Climbing Houston Center
11:32AM 30.7261 -100.3083 283° West 372 428 36,000  Level Houston Center
11:33AM 30.7506 -100.4244 284° West 372 428 36,000  Level Houston Center
11:34AM 30.7803 -100.5642 284° West 372 428 36,000  Level Houston Center
11:35AM 30.8039 -100.6817 283° West 373 429 36,000  Level Houston Center
11:36AM 30.8286 -100.7975 284° West 373 429 36,000  Level Houston Center
11:37AM 30.8506 -100.9167 282° West 374 430 36,000  Level Houston Center
11:38AM 30.8756 -101.0336 284° West 374 430 36,000  Level Houston Center
11:40AM 30.8975 -101.1506 282° West 375 432 36,000  Level Houston Center
11:41AM 30.9261 -101.2914 283° West 375 432 36,000  Level Houston Center
11:42AM 30.9472 -101.3967 283° West 373 429 36,000  Level Houston Center
11:43AM 30.9692 -101.5111 283° West 368 423 36,000  Level Houston Center
11:44AM 30.9975 -101.6483 284° West 367 422 36,000  Level Houston Center
11:45AM 31.0200 -101.7625 283° West 364 419 36,000  Level Houston Center
11:46AM 31.0419 -101.8764 283° West 362 417 36,000  Level Houston Center
11:47AM 31.0642 -101.9903 283° West 362 417 36,000  Level Houston Center
11:48AM 31.0856 -102.1031 283° West 360 414 36,000  Level Houston Center
11:49AM 31.1072 -102.2167 283° West 359 413 36,000  Level Houston Center
11:50AM 31.1281 -102.3314 282° West 358 412 36,000  Level Houston Center
11:51AM 31.1533 -102.4656 282° West 352 405 36,000  Level Albuquerque Center
11:52AM 31.1756 -102.5833 282° West 354 407 36,000  Level Albuquerque Center
11:53AM 31.1964 -102.6953 282° West 353 406 36,000 -60 Level Albuquerque Center
11:54AM 31.2172 -102.8058 282° West 350 403 35,900  Descending Albuquerque Center
11:55AM 31.2378 -102.9158 282° West 349 402 36,000  Climbing Albuquerque Center
11:56AM 31.2586 -103.0272 282° West 350 403 36,000  Level Albuquerque Center
11:57AM 31.2775 -103.1367 281° West 346 398 36,000  Level Albuquerque Center
11:58AM 31.2981 -103.2469 282° West 347 399 36,000  Level Albuquerque Center
11:59AM 31.3186 -103.3561 282° West 346 398 36,000  Level Albuquerque Center
12:00PM 31.3428 -103.4917 282° West 351 404 36,000  Level Albuquerque Center
12:01PM 31.3633 -103.6044 282° West 353 406 36,000  Level Albuquerque Center
12:02PM 31.3833 -103.7169 282° West 354 407 36,000  Level Albuquerque Center
12:03PM 31.4022 -103.8286 281° West 354 407 36,000  Level Albuquerque Center
12:04PM 31.4239 -103.9425 283° West 356 410 36,000  Level Albuquerque Center
12:05PM 31.4456 -104.0561 283° West 358 412 36,000  Level Albuquerque Center
12:06PM 31.4650 -104.1694 281° West 358 412 36,000 -60 Level Albuquerque Center
12:07PM 31.4839 -104.2822 281° West 357 411 35,900  Descending Albuquerque Center
12:08PM 31.5072 -104.4183 281° West 357 411 36,000  Climbing Albuquerque Center
12:09PM 31.5261 -104.5292 281° West 352 405 36,000  Level Albuquerque Center
12:10PM 31.5464 -104.6428 282° West 355 409 36,000  Level Albuquerque Center
12:11PM 31.5656 -104.7558 281° West 357 411 36,000 -60 Level Albuquerque Center
12:12PM 31.5853 -104.8697 282° West 358 412 35,900 -60 Descending Albuquerque Center
12:13PM 31.6042 -104.9822 281° West 355 409 35,900  Level Albuquerque Center
12:15PM 31.6267 -105.1142 281° West 349 402 36,000  Climbing Albuquerque Center
12:16PM 31.6447 -105.2242 281° West 346 398 36,000 -60 Level Albuquerque Center
12:17PM 31.6622 -105.3344 281° West 346 398 35,900  Descending Albuquerque Center
12:18PM 31.6806 -105.4431 281° West 343 395 36,000  Climbing Albuquerque Center
12:19PM 31.6981 -105.5525 281° West 342 394 36,000  Level Albuquerque Center
12:20PM 31.7164 -105.6622 281° West 344 396 36,000  Level Albuquerque Center
12:21PM 31.7378 -105.7944 281° West 345 397 36,000  Level Albuquerque Center
12:22PM 31.7553 -105.9044 281° West 343 395 36,000  Level Albuquerque Center
12:23PM 31.7733 -106.0150 281° West 346 398 36,000  Level Albuquerque Center
12:24PM 31.7914 -106.1286 281° West 353 406 36,000  Level Albuquerque Center
12:25PM 31.8114 -106.2411 282° West 354 407 36,000 -60 Level Albuquerque Center
12:26PM 31.8222 -106.3561 276° West 354 407 35,900  Descending Albuquerque Center
12:27PM 31.8325 -106.4897 275° West 347 399 36,000  Climbing Albuquerque Center
12:28PM 31.8397 -106.6019 274° West 341 392 36,000  Level Albuquerque Center
12:29PM 31.8483 -106.7108 275° West 336 387 36,000  Level Albuquerque Center
12:30PM 31.8569 -106.8189 275° West 333 383 36,000  Level Albuquerque Center
12:31PM 31.8647 -106.9289 275° West 336 387 36,000  Level Albuquerque Center
12:32PM 31.8722 -107.0403 275° West 340 391 36,000  Level Albuquerque Center
12:33PM 31.8850 -107.1508 278° West 340 391 36,000  Level Albuquerque Center
12:34PM 31.9067 -107.2650 283° West 355 409 36,000  Level Albuquerque Center
12:35PM 31.9278 -107.3772 283° West 352 405 36,000  Level Albuquerque Center
12:36PM 31.9536 -107.5136 283° West 353 406 36,000  Level Albuquerque Center
12:37PM 31.9739 -107.6247 282° West 349 402 36,000  Level Albuquerque Center
12:38PM 31.9950 -107.7372 283° West 349 402 36,000  Level Albuquerque Center
12:39PM 32.0169 -107.8522 283° West 357 411 36,000  Level Albuquerque Center
12:40PM 32.0375 -107.9669 282° West 357 411 36,000 -60 Level Albuquerque Center
12:41PM 32.0583 -108.0808 282° West 356 410 35,900  Descending Albuquerque Center
12:42PM 32.0789 -108.1975 282° West 360 414 36,000  Climbing Albuquerque Center
12:43PM 32.1047 -108.3364 282° West 362 417 35,900  Descending Albuquerque Center
12:44PM 32.1250 -108.4483 282° West 354 407 36,000 -360 Climbing Albuquerque Center
12:45PM 32.1433 -108.5483 282° West 356 410 35,200 -1,020 Descending Albuquerque Center
12:46PM 32.1672 -108.6869 282° West 359 413 34,000 -600 Descending Albuquerque Center
12:47PM 32.1881 -108.8011 282° West 357 411 34,000  Level Albuquerque Center
12:49PM 32.2075 -108.9128 282° West 350 403 34,000  Level Albuquerque Center
12:50PM 32.2272 -109.0283 281° West 355 409 34,000  Level Albuquerque Center
12:51PM 32.2475 -109.1428 282° West 357 411 34,000  Level Albuquerque Center
12:52PM 32.2681 -109.2586 282° West 359 413 34,000  Level Albuquerque Center
12:53PM 32.2950 -109.3775 285° West 368 423 34,000  Level Albuquerque Center
12:54PM 32.3303 -109.5178 287° West 371 427 34,000  Level Albuquerque Center
12:55PM 32.3578 -109.6292 286° West 359 413 34,000  Level Albuquerque Center
12:56PM 32.3839 -109.7414 285° West 354 407 34,000  Level Albuquerque Center
12:57PM 32.4100 -109.8519 286° West 351 404 34,000  Level Albuquerque Center
12:58PM 32.4397 -109.9681 287° West 362 417 34,000  Level Albuquerque Center
12:59PM 32.4678 -110.0822 286° West 362 417 34,000 -720 Level Albuquerque Center
01:00PM 32.4936 -110.1958 285° West 360 414 32,600 -1,980 Descending Albuquerque Center
01:01PM 32.5200 -110.3056 286° West 352 405 30,000 -2,580 Descending Albuquerque Center
01:02PM 32.5481 -110.4217 286° West 349 402 27,400 -2,700 Descending Albuquerque Center
01:03PM 32.5797 -110.5572 286° West 355 409 24,500 -1,680 Descending Albuquerque Center
01:04PM 32.6250 -110.6583 298° West 353 406 24,000 -300 Descending Albuquerque Center
01:05PM 32.6803 -110.7603 303° West 364 419 24,000  Level Albuquerque Center
01:06PM 32.7339 -110.8611 302° West 363 418 24,000 -660 Level Albuquerque Center
01:07PM 32.7883 -110.9622 303° West 364 419 22,700 -1,740 Descending Albuquerque Center
01:08PM 32.8394 -111.0608 302° West 355 409 20,500 -1,980 Descending Albuquerque Center
01:09PM 32.8878 -111.1561 301° West 342 394 18,700 -2,040 Descending Albuquerque Center
01:10PM 32.9383 -111.2644 299° West 314 361 16,400 -2,040 Descending Albuquerque Center
01:11PM 32.9797 -111.3539 299° West 309 356 14,600 -1,440 Descending Albuquerque Center
01:12PM 33.0178 -111.4361 299° West 285 328 13,500 -1,260 Descending Albuquerque Center
01:13PM 33.0583 -111.5119 303° West 273 314 12,000 -1,500 Descending Albuquerque Center
01:14PM 33.1111 -111.5789 313° West 293 337 10,400 -1,380 Descending Albuquerque Center
01:15PM 33.1881 -111.6217 335° Northwest 305 351 9,200 -1,020 Descending Albuquerque Center
01:16PM 33.2578 -111.6600 335° Northwest 280 322 8,400 -1,080 Descending Albuquerque Center
01:17PM 33.3244 -111.7200 323° Northwest 250 288 7,100 -1,200 Descending Albuquerque Center
01:18PM 33.3733 -111.7694 320° Northwest 232 267 6,000 -1,080 Descending Albuquerque Center
01:19PM 33.4153 -111.8200 315° West 216 249 4,900 -1,380 Descending Albuquerque Center
01:20PM 33.4289 -111.8775 286° West 190 219 3,200 -1,320 Descending Albuquerque Center
01:21PM 33.4292 -111.9372 270° West 180 207 2,200 -900 Descending Albuquerque Center
01:22PM 33.4286 -111.9931 269° West 157 181 1,400 -780 Descending Albuquerque Center
01:24PM 33.4343 -112.0116 270° West  Level Estimated
01:31PM 33.4343 -112.0116 40° Northeast  Level Estimated